Riesel, Texas
Current Conditions -  °F | °C
As of 4:53 PM on Tuesday 25 Nov 2014 (Local Time) from KCNW Reporting Station
Clear Clear  
Wind Chill: 61°   Ceiling: Unl
Heat Index: 61°   Visibility: 10mi
Dew Point: 25°   Wind: 6mph
Humidity: 25%   Direction: 240°WSW
Pressure: 30.18"   Gusts: NA
Location:  31.47°N, 96.92°W
Report Text: KCNW 252253Z 24005KT 10SM SKC 16/M04 A3018
Loading
Personal Weather Stations






























Interactive Weather Map New forecast layout! Learn more

10-Day Weather Forecast

Advertisements
Track Severe Weather on mobile